Hovedside
METAR-TAF:

METAR-TAF

Lufthavner :

Nassau, Bahamas

breddegrad: 25-03N, lengdegrad: 077-28W, høyde over havet: 3 m

Gjeldene værobservasjon

Denne rapporten ble laget for 25 minutter siden, klokken 12:00 UTC
Vind 4 kt fra Øst-sørøst
Temperatur 29°C
Luftfuktighet 70%
Trykk 1020 hPa
Sikt 10 km eller mer
Få skyer i en høyde av 2000 ft, Bygeskyer.

METAR: MYNN 161200Z 120004KT 9999 FEW020CB 29/23 A3011 RMK CB/E

Tid: 08:25 (12:25 UTC)

Varsel

Denne rapporten ble laget for 2 timer og 25 minutter siden, klokken 10:00 UTC
Varsel gyldig fra 16. klokken 12 UTC til 17. klokken 12 UTC
Vind 2 kt fra skiftende retning
Sikt 10 km eller mer
Få skyer i en høyde av 2000 ft
Blir
fra 16. klokken 16 UTC til 16. klokken 18 UTC
Vind 10 kt fra Sør-sørøst

TAF: MYNN 161000Z 1612/1712 VRB02KT 9999 FEW020 BECMG 1616/1618 15010KT

Værobservasjoner og værvarsel for over 4000 flyplasser (METAR- og TAF-rapporter).

Tilgjengelige stasjoner er representert av de røde og gule prikkene på kartet.

Hold musepekeren over prikken for å se navnet på stasjonen.

Klikk så for å se værobservasjoner og -varsler.

For å forandre kartet kan du klikke på den grønne knappen med svart kryss for å zoome inn, på den grønne knappen med strek for å zoome ut, eller på de grønne pilene for å se tilstøtende kart.


METAR-TAF: